sensor_id;sensor_type;location;lat;lon;timestamp;P1;durP1;ratioP1;P2;durP2;ratioP2
15230;SDS011;32569;51.762;8.564;2023-04-25T00:00:39;13.37;;;6.93;;
15230;SDS011;32569;51.762;8.564;2023-04-25T00:03:06;12.27;;;6.33;;
15230;SDS011;32569;51.762;8.564;2023-04-25T00:05:33;11.80;;;6.23;;
15230;SDS011;32569;51.762;8.564;2023-04-25T00:08:03;9.50;;;5.53;;
15230;SDS011;32569;51.762;8.564;2023-04-25T00:10:30;13.33;;;5.70;;
15230;SDS011;32569;51.762;8.564;2023-04-25T00:13:00;9.27;;;5.37;;
15230;SDS011;32569;51.762;8.564;2023-04-25T00:15:28;11.33;;;6.03;;
15230;SDS011;32569;51.762;8.564;2023-04-25T00:17:56;11.97;;;6.63;;
15230;SDS011;32569;51.762;8.564;2023-04-25T00:20:22;11.20;;;5.93;;
15230;SDS011;32569;51.762;8.564;2023-04-25T00:22:49;11.23;;;5.23;;
15230;SDS011;32569;51.762;8.564;2023-04-25T00:25:20;8.57;;;5.20;;
15230;SDS011;32569;51.762;8.564;2023-04-25T00:27:47;10.90;;;5.50;;
15230;SDS011;32569;51.762;8.564;2023-04-25T00:30:14;13.03;;;6.13;;
15230;SDS011;32569;51.762;8.564;2023-04-25T00:32:40;11.30;;;5.60;;
15230;SDS011;32569;51.762;8.564;2023-04-25T00:35:07;10.47;;;5.60;;
15230;SDS011;32569;51.762;8.564;2023-04-25T00:37:41;13.30;;;6.17;;
15230;SDS011;32569;51.762;8.564;2023-04-25T00:40:11;10.83;;;6.73;;
15230;SDS011;32569;51.762;8.564;2023-04-25T00:42:42;15.37;;;7.07;;
15230;SDS011;32569;51.762;8.564;2023-04-25T00:45:08;12.90;;;6.80;;
15230;SDS011;32569;51.762;8.564;2023-04-25T00:47:39;11.40;;;6.17;;
15230;SDS011;32569;51.762;8.564;2023-04-25T00:50:06;17.13;;;7.20;;
15230;SDS011;32569;51.762;8.564;2023-04-25T00:52:34;11.23;;;6.23;;
15230;SDS011;32569;51.762;8.564;2023-04-25T00:55:01;13.97;;;7.60;;
15230;SDS011;32569;51.762;8.564;2023-04-25T00:57:28;13.43;;;6.80;;
15230;SDS011;32569;51.762;8.564;2023-04-25T00:59:56;14.10;;;7.40;;
15230;SDS011;32569;51.762;8.564;2023-04-25T01:02:23;12.90;;;7.97;;
15230;SDS011;32569;51.762;8.564;2023-04-25T01:04:52;14.70;;;8.43;;
15230;SDS011;32569;51.762;8.564;2023-04-25T01:07:18;13.43;;;8.03;;
15230;SDS011;32569;51.762;8.564;2023-04-25T01:09:45;13.47;;;8.40;;
15230;SDS011;32569;51.762;8.564;2023-04-25T01:12:12;14.67;;;9.93;;
15230;SDS011;32569;51.762;8.564;2023-04-25T01:14:39;13.90;;;8.27;;
15230;SDS011;32569;51.762;8.564;2023-04-25T01:17:11;13.77;;;8.73;;
15230;SDS011;32569;51.762;8.564;2023-04-25T01:19:37;17.07;;;9.47;;
15230;SDS011;32569;51.762;8.564;2023-04-25T01:22:05;19.73;;;9.20;;
15230;SDS011;32569;51.762;8.564;2023-04-25T01:24:35;13.67;;;8.23;;
15230;SDS011;32569;51.762;8.564;2023-04-25T01:27:02;14.03;;;8.83;;
15230;SDS011;32569;51.762;8.564;2023-04-25T01:29:30;14.67;;;8.53;;
15230;SDS011;32569;51.762;8.564;2023-04-25T01:31:58;16.27;;;9.40;;
15230;SDS011;32569;51.762;8.564;2023-04-25T01:34:26;13.87;;;9.00;;
15230;SDS011;32569;51.762;8.564;2023-04-25T01:36:53;17.10;;;9.50;;
15230;SDS011;32569;51.762;8.564;2023-04-25T01:39:21;14.93;;;9.70;;
15230;SDS011;32569;51.762;8.564;2023-04-25T01:41:48;16.60;;;9.97;;
15230;SDS011;32569;51.762;8.564;2023-04-25T01:44:15;15.83;;;10.50;;
15230;SDS011;32569;51.762;8.564;2023-04-25T01:46:42;15.37;;;10.27;;
15230;SDS011;32569;51.762;8.564;2023-04-25T01:49:09;17.47;;;10.33;;
15230;SDS011;32569;51.762;8.564;2023-04-25T01:51:38;16.03;;;9.47;;
15230;SDS011;32569;51.762;8.564;2023-04-25T01:54:05;14.70;;;10.10;;
15230;SDS011;32569;51.762;8.564;2023-04-25T01:56:36;16.37;;;10.47;;
15230;SDS011;32569;51.762;8.564;2023-04-25T01:59:04;19.40;;;10.73;;
15230;SDS011;32569;51.762;8.564;2023-04-25T02:01:33;16.50;;;10.23;;
15230;SDS011;32569;51.762;8.564;2023-04-25T02:03:59;13.27;;;9.23;;
15230;SDS011;32569;51.762;8.564;2023-04-25T02:06:28;15.13;;;10.50;;
15230;SDS011;32569;51.762;8.564;2023-04-25T02:08:55;15.80;;;10.03;;
15230;SDS011;32569;51.762;8.564;2023-04-25T02:11:22;18.13;;;11.00;;
15230;SDS011;32569;51.762;8.564;2023-04-25T02:13:50;14.47;;;10.57;;
15230;SDS011;32569;51.762;8.564;2023-04-25T02:16:16;19.17;;;11.13;;
15230;SDS011;32569;51.762;8.564;2023-04-25T02:18:43;18.80;;;11.13;;
15230;SDS011;32569;51.762;8.564;2023-04-25T02:21:10;17.30;;;10.63;;
15230;SDS011;32569;51.762;8.564;2023-04-25T02:23:37;18.33;;;10.10;;
15230;SDS011;32569;51.762;8.564;2023-04-25T02:26:04;18.90;;;11.03;;
15230;SDS011;32569;51.762;8.564;2023-04-25T02:28:31;15.77;;;10.73;;
15230;SDS011;32569;51.762;8.564;2023-04-25T02:30:59;14.47;;;10.23;;
15230;SDS011;32569;51.762;8.564;2023-04-25T02:33:31;19.90;;;11.77;;
15230;SDS011;32569;51.762;8.564;2023-04-25T02:35:58;17.63;;;10.33;;
15230;SDS011;32569;51.762;8.564;2023-04-25T02:38:24;15.20;;;11.10;;
15230;SDS011;32569;51.762;8.564;2023-04-25T02:40:51;18.20;;;10.97;;
15230;SDS011;32569;51.762;8.564;2023-04-25T02:43:17;18.13;;;11.00;;
15230;SDS011;32569;51.762;8.564;2023-04-25T02:45:45;16.40;;;11.40;;
15230;SDS011;32569;51.762;8.564;2023-04-25T02:48:13;16.97;;;10.93;;
15230;SDS011;32569;51.762;8.564;2023-04-25T02:50:40;19.23;;;11.47;;
15230;SDS011;32569;51.762;8.564;2023-04-25T02:53:07;18.83;;;12.47;;
15230;SDS011;32569;51.762;8.564;2023-04-25T02:55:34;18.07;;;11.53;;
15230;SDS011;32569;51.762;8.564;2023-04-25T02:58:00;17.47;;;11.33;;
15230;SDS011;32569;51.762;8.564;2023-04-25T03:00:27;16.30;;;12.07;;
15230;SDS011;32569;51.762;8.564;2023-04-25T03:02:54;18.73;;;11.70;;
15230;SDS011;32569;51.762;8.564;2023-04-25T03:05:22;18.63;;;11.63;;
15230;SDS011;32569;51.762;8.564;2023-04-25T03:07:48;18.43;;;12.57;;
15230;SDS011;32569;51.762;8.564;2023-04-25T03:10:15;19.07;;;12.07;;
15230;SDS011;32569;51.762;8.564;2023-04-25T03:12:42;16.60;;;11.60;;
15230;SDS011;32569;51.762;8.564;2023-04-25T03:15:09;17.03;;;11.60;;
15230;SDS011;32569;51.762;8.564;2023-04-25T03:17:35;16.43;;;10.90;;
15230;SDS011;32569;51.762;8.564;2023-04-25T03:20:02;19.07;;;12.77;;
15230;SDS011;32569;51.762;8.564;2023-04-25T03:22:31;15.80;;;10.83;;
15230;SDS011;32569;51.762;8.564;2023-04-25T03:24:58;19.97;;;11.63;;
15230;SDS011;32569;51.762;8.564;2023-04-25T03:27:24;15.67;;;10.53;;
15230;SDS011;32569;51.762;8.564;2023-04-25T03:29:51;15.93;;;10.57;;
15230;SDS011;32569;51.762;8.564;2023-04-25T03:32:18;17.07;;;10.93;;
15230;SDS011;32569;51.762;8.564;2023-04-25T03:34:44;18.00;;;9.93;;
15230;SDS011;32569;51.762;8.564;2023-04-25T03:37:11;16.40;;;9.33;;
15230;SDS011;32569;51.762;8.564;2023-04-25T03:39:39;15.57;;;9.70;;
15230;SDS011;32569;51.762;8.564;2023-04-25T03:42:06;14.77;;;9.60;;
15230;SDS011;32569;51.762;8.564;2023-04-25T03:44:32;17.17;;;10.23;;
15230;SDS011;32569;51.762;8.564;2023-04-25T03:46:59;14.83;;;9.73;;
15230;SDS011;32569;51.762;8.564;2023-04-25T03:49:25;17.70;;;9.63;;
15230;SDS011;32569;51.762;8.564;2023-04-25T03:51:55;16.93;;;10.43;;
15230;SDS011;32569;51.762;8.564;2023-04-25T03:54:21;17.97;;;9.87;;
15230;SDS011;32569;51.762;8.564;2023-04-25T03:56:49;16.13;;;10.60;;
15230;SDS011;32569;51.762;8.564;2023-04-25T03:59:16;12.67;;;9.17;;
15230;SDS011;32569;51.762;8.564;2023-04-25T04:01:42;13.53;;;8.77;;
15230;SDS011;32569;51.762;8.564;2023-04-25T04:04:09;13.17;;;9.20;;
15230;SDS011;32569;51.762;8.564;2023-04-25T04:06:36;15.50;;;8.70;;
15230;SDS011;32569;51.762;8.564;2023-04-25T04:09:02;15.27;;;8.77;;
15230;SDS011;32569;51.762;8.564;2023-04-25T04:11:31;13.33;;;8.57;;
15230;SDS011;32569;51.762;8.564;2023-04-25T04:13:59;12.13;;;8.23;;
15230;SDS011;32569;51.762;8.564;2023-04-25T04:16:31;14.93;;;8.57;;
15230;SDS011;32569;51.762;8.564;2023-04-25T04:18:57;17.07;;;7.70;;
15230;SDS011;32569;51.762;8.564;2023-04-25T04:21:24;10.83;;;7.33;;
15230;SDS011;32569;51.762;8.564;2023-04-25T04:23:52;12.60;;;7.60;;
15230;SDS011;32569;51.762;8.564;2023-04-25T04:26:19;13.67;;;7.73;;
15230;SDS011;32569;51.762;8.564;2023-04-25T04:28:48;13.77;;;7.50;;
15230;SDS011;32569;51.762;8.564;2023-04-25T04:31:16;11.13;;;6.83;;
15230;SDS011;32569;51.762;8.564;2023-04-25T04:33:44;14.13;;;7.03;;
15230;SDS011;32569;51.762;8.564;2023-04-25T04:36:11;13.47;;;6.47;;
15230;SDS011;32569;51.762;8.564;2023-04-25T04:38:38;10.77;;;6.27;;
15230;SDS011;32569;51.762;8.564;2023-04-25T04:41:06;14.10;;;6.90;;
15230;SDS011;32569;51.762;8.564;2023-04-25T04:43:32;13.87;;;7.53;;
15230;SDS011;32569;51.762;8.564;2023-04-25T04:46:00;11.80;;;6.87;;
15230;SDS011;32569;51.762;8.564;2023-04-25T04:48:29;15.63;;;6.70;;
15230;SDS011;32569;51.762;8.564;2023-04-25T04:50:57;14.37;;;7.00;;
15230;SDS011;32569;51.762;8.564;2023-04-25T04:53:24;17.33;;;6.80;;
15230;SDS011;32569;51.762;8.564;2023-04-25T04:55:51;12.87;;;6.37;;
15230;SDS011;32569;51.762;8.564;2023-04-25T04:58:17;12.43;;;7.13;;
15230;SDS011;32569;51.762;8.564;2023-04-25T05:00:44;12.93;;;7.47;;
15230;SDS011;32569;51.762;8.564;2023-04-25T05:03:11;14.47;;;6.87;;
15230;SDS011;32569;51.762;8.564;2023-04-25T05:05:39;14.70;;;7.60;;
15230;SDS011;32569;51.762;8.564;2023-04-25T05:08:06;16.07;;;6.23;;
15230;SDS011;32569;51.762;8.564;2023-04-25T05:10:32;14.70;;;6.40;;
15230;SDS011;32569;51.762;8.564;2023-04-25T05:12:59;12.43;;;5.70;;
15230;SDS011;32569;51.762;8.564;2023-04-25T05:15:26;11.40;;;6.73;;
15230;SDS011;32569;51.762;8.564;2023-04-25T05:17:52;15.37;;;6.03;;
15230;SDS011;32569;51.762;8.564;2023-04-25T05:20:19;12.17;;;5.43;;
15230;SDS011;32569;51.762;8.564;2023-04-25T05:22:47;13.80;;;5.77;;
15230;SDS011;32569;51.762;8.564;2023-04-25T05:25:13;14.23;;;5.47;;
15230;SDS011;32569;51.762;8.564;2023-04-25T05:27:40;17.20;;;5.87;;
15230;SDS011;32569;51.762;8.564;2023-04-25T05:30:07;14.83;;;5.30;;
15230;SDS011;32569;51.762;8.564;2023-04-25T05:32:34;14.90;;;6.10;;
15230;SDS011;32569;51.762;8.564;2023-04-25T05:35:01;15.13;;;5.70;;
15230;SDS011;32569;51.762;8.564;2023-04-25T05:37:28;12.57;;;5.07;;
15230;SDS011;32569;51.762;8.564;2023-04-25T05:39:57;15.23;;;5.53;;
15230;SDS011;32569;51.762;8.564;2023-04-25T05:42:23;15.27;;;4.83;;
15230;SDS011;32569;51.762;8.564;2023-04-25T05:44:50;13.73;;;5.50;;
15230;SDS011;32569;51.762;8.564;2023-04-25T05:47:17;13.27;;;5.10;;
15230;SDS011;32569;51.762;8.564;2023-04-25T05:49:43;13.57;;;5.40;;
15230;SDS011;32569;51.762;8.564;2023-04-25T05:52:10;16.73;;;5.33;;
15230;SDS011;32569;51.762;8.564;2023-04-25T05:54:37;13.07;;;5.80;;
15230;SDS011;32569;51.762;8.564;2023-04-25T05:57:05;12.30;;;5.43;;
15230;SDS011;32569;51.762;8.564;2023-04-25T05:59:32;16.07;;;5.67;;
15230;SDS011;32569;51.762;8.564;2023-04-25T06:01:58;14.90;;;5.97;;
15230;SDS011;32569;51.762;8.564;2023-04-25T06:04:25;14.80;;;5.00;;
15230;SDS011;32569;51.762;8.564;2023-04-25T06:06:52;17.57;;;5.63;;
15230;SDS011;32569;51.762;8.564;2023-04-25T06:09:18;18.00;;;5.33;;
15230;SDS011;32569;51.762;8.564;2023-04-25T06:11:46;12.67;;;5.00;;
15230;SDS011;32569;51.762;8.564;2023-04-25T06:14:14;12.27;;;5.37;;
15230;SDS011;32569;51.762;8.564;2023-04-25T06:16:40;11.73;;;6.23;;
15230;SDS011;32569;51.762;8.564;2023-04-25T06:19:07;10.57;;;4.70;;
15230;SDS011;32569;51.762;8.564;2023-04-25T06:21:34;10.50;;;5.10;;
15230;SDS011;32569;51.762;8.564;2023-04-25T06:24:00;11.50;;;5.07;;
15230;SDS011;32569;51.762;8.564;2023-04-25T06:26:27;16.33;;;4.80;;
15230;SDS011;32569;51.762;8.564;2023-04-25T06:28:54;13.07;;;4.70;;
15230;SDS011;32569;51.762;8.564;2023-04-25T06:31:22;12.97;;;5.37;;
15230;SDS011;32569;51.762;8.564;2023-04-25T06:33:48;15.10;;;5.60;;
15230;SDS011;32569;51.762;8.564;2023-04-25T06:36:15;12.17;;;5.10;;
15230;SDS011;32569;51.762;8.564;2023-04-25T06:38:41;14.17;;;4.83;;
15230;SDS011;32569;51.762;8.564;2023-04-25T06:41:08;12.00;;;6.00;;
15230;SDS011;32569;51.762;8.564;2023-04-25T06:43:35;17.40;;;5.07;;
15230;SDS011;32569;51.762;8.564;2023-04-25T06:46:01;7.70;;;4.40;;
15230;SDS011;32569;51.762;8.564;2023-04-25T06:48:29;10.60;;;4.20;;
15230;SDS011;32569;51.762;8.564;2023-04-25T06:50:56;12.60;;;5.30;;
15230;SDS011;32569;51.762;8.564;2023-04-25T06:53:22;11.70;;;3.97;;
15230;SDS011;32569;51.762;8.564;2023-04-25T06:55:49;12.37;;;5.10;;
15230;SDS011;32569;51.762;8.564;2023-04-25T06:58:16;15.17;;;4.97;;
15230;SDS011;32569;51.762;8.564;2023-04-25T07:00:43;8.73;;;4.73;;
15230;SDS011;32569;51.762;8.564;2023-04-25T07:03:10;10.40;;;4.00;;
15230;SDS011;32569;51.762;8.564;2023-04-25T07:05:38;12.73;;;4.73;;
15230;SDS011;32569;51.762;8.564;2023-04-25T07:08:05;12.17;;;4.30;;
15230;SDS011;32569;51.762;8.564;2023-04-25T07:10:31;19.63;;;4.43;;
15230;SDS011;32569;51.762;8.564;2023-04-25T07:12:58;12.47;;;3.83;;
15230;SDS011;32569;51.762;8.564;2023-04-25T07:15:25;14.47;;;5.30;;
15230;SDS011;32569;51.762;8.564;2023-04-25T07:17:54;11.50;;;4.23;;
15230;SDS011;32569;51.762;8.564;2023-04-25T07:20:21;11.40;;;5.67;;
15230;SDS011;32569;51.762;8.564;2023-04-25T07:22:49;9.90;;;4.30;;
15230;SDS011;32569;51.762;8.564;2023-04-25T07:25:16;9.60;;;3.67;;
15230;SDS011;32569;51.762;8.564;2023-04-25T07:27:42;11.30;;;3.90;;
15230;SDS011;32569;51.762;8.564;2023-04-25T07:30:10;15.93;;;4.13;;
15230;SDS011;32569;51.762;8.564;2023-04-25T07:32:37;10.43;;;4.10;;
15230;SDS011;32569;51.762;8.564;2023-04-25T07:35:04;10.03;;;4.03;;
15230;SDS011;32569;51.762;8.564;2023-04-25T07:37:32;9.63;;;3.60;;
15230;SDS011;32569;51.762;8.564;2023-04-25T07:40:00;11.80;;;3.40;;
15230;SDS011;32569;51.762;8.564;2023-04-25T07:42:28;12.77;;;4.60;;
15230;SDS011;32569;51.762;8.564;2023-04-25T07:44:55;13.23;;;3.40;;
15230;SDS011;32569;51.762;8.564;2023-04-25T07:47:21;12.33;;;3.37;;
15230;SDS011;32569;51.762;8.564;2023-04-25T07:49:48;12.27;;;3.50;;
15230;SDS011;32569;51.762;8.564;2023-04-25T07:52:15;13.00;;;3.50;;
15230;SDS011;32569;51.762;8.564;2023-04-25T07:54:41;9.87;;;3.43;;
15230;SDS011;32569;51.762;8.564;2023-04-25T07:57:09;8.17;;;3.77;;
15230;SDS011;32569;51.762;8.564;2023-04-25T07:59:36;10.03;;;3.70;;
15230;SDS011;32569;51.762;8.564;2023-04-25T08:02:03;7.70;;;3.97;;
15230;SDS011;32569;51.762;8.564;2023-04-25T08:04:30;8.50;;;3.57;;
15230;SDS011;32569;51.762;8.564;2023-04-25T08:06:56;6.97;;;2.83;;
15230;SDS011;32569;51.762;8.564;2023-04-25T08:09:23;13.27;;;4.43;;
15230;SDS011;32569;51.762;8.564;2023-04-25T08:11:49;9.50;;;2.80;;
15230;SDS011;32569;51.762;8.564;2023-04-25T08:14:17;8.27;;;3.07;;
15230;SDS011;32569;51.762;8.564;2023-04-25T08:16:44;7.13;;;2.93;;
15230;SDS011;32569;51.762;8.564;2023-04-25T08:19:11;9.40;;;3.97;;
15230;SDS011;32569;51.762;8.564;2023-04-25T08:21:38;16.50;;;3.83;;
15230;SDS011;32569;51.762;8.564;2023-04-25T08:24:04;6.07;;;2.53;;
15230;SDS011;32569;51.762;8.564;2023-04-25T08:26:31;7.63;;;2.80;;
15230;SDS011;32569;51.762;8.564;2023-04-25T08:28:59;5.63;;;2.67;;
15230;SDS011;32569;51.762;8.564;2023-04-25T08:31:27;9.13;;;2.90;;
15230;SDS011;32569;51.762;8.564;2023-04-25T08:33:54;8.43;;;2.67;;
15230;SDS011;32569;51.762;8.564;2023-04-25T08:36:20;10.17;;;2.90;;
15230;SDS011;32569;51.762;8.564;2023-04-25T08:38:47;10.07;;;3.60;;
15230;SDS011;32569;51.762;8.564;2023-04-25T08:41:14;6.03;;;2.60;;
15230;SDS011;32569;51.762;8.564;2023-04-25T08:43:42;6.27;;;2.87;;
15230;SDS011;32569;51.762;8.564;2023-04-25T08:46:09;6.87;;;2.83;;
15230;SDS011;32569;51.762;8.564;2023-04-25T08:48:39;9.57;;;3.87;;
15230;SDS011;32569;51.762;8.564;2023-04-25T08:51:08;6.37;;;2.83;;
15230;SDS011;32569;51.762;8.564;2023-04-25T08:53:40;8.00;;;2.53;;
15230;SDS011;32569;51.762;8.564;2023-04-25T08:56:08;6.23;;;3.00;;
15230;SDS011;32569;51.762;8.564;2023-04-25T08:58:38;5.73;;;2.20;;
15230;SDS011;32569;51.762;8.564;2023-04-25T09:01:05;5.40;;;2.30;;
15230;SDS011;32569;51.762;8.564;2023-04-25T09:03:31;8.40;;;3.43;;
15230;SDS011;32569;51.762;8.564;2023-04-25T09:06:00;4.13;;;2.63;;
15230;SDS011;32569;51.762;8.564;2023-04-25T09:08:27;9.27;;;3.17;;
15230;SDS011;32569;51.762;8.564;2023-04-25T09:10:53;8.00;;;2.80;;
15230;SDS011;32569;51.762;8.564;2023-04-25T09:13:23;8.67;;;2.70;;
15230;SDS011;32569;51.762;8.564;2023-04-25T09:15:52;7.27;;;3.20;;
15230;SDS011;32569;51.762;8.564;2023-04-25T09:18:23;6.07;;;2.30;;
15230;SDS011;32569;51.762;8.564;2023-04-25T09:20:51;7.33;;;2.53;;
15230;SDS011;32569;51.762;8.564;2023-04-25T09:23:20;6.67;;;2.83;;
15230;SDS011;32569;51.762;8.564;2023-04-25T09:25:48;7.50;;;2.80;;
15230;SDS011;32569;51.762;8.564;2023-04-25T09:28:16;5.97;;;2.20;;
15230;SDS011;32569;51.762;8.564;2023-04-25T09:30:49;7.00;;;2.60;;
15230;SDS011;32569;51.762;8.564;2023-04-25T09:33:20;4.40;;;2.80;;
15230;SDS011;32569;51.762;8.564;2023-04-25T09:35:52;5.73;;;2.43;;
15230;SDS011;32569;51.762;8.564;2023-04-25T09:38:21;7.20;;;2.77;;
15230;SDS011;32569;51.762;8.564;2023-04-25T09:40:48;7.33;;;2.50;;
15230;SDS011;32569;51.762;8.564;2023-04-25T09:43:20;3.87;;;2.30;;
15230;SDS011;32569;51.762;8.564;2023-04-25T09:45:48;5.43;;;2.53;;
15230;SDS011;32569;51.762;8.564;2023-04-25T09:48:16;6.03;;;2.30;;
15230;SDS011;32569;51.762;8.564;2023-04-25T09:50:44;7.93;;;2.17;;
15230;SDS011;32569;51.762;8.564;2023-04-25T09:53:11;3.23;;;2.00;;
15230;SDS011;32569;51.762;8.564;2023-04-25T09:55:39;4.13;;;2.20;;
15230;SDS011;32569;51.762;8.564;2023-04-25T09:58:07;4.60;;;2.33;;
15230;SDS011;32569;51.762;8.564;2023-04-25T10:00:37;6.63;;;2.20;;
15230;SDS011;32569;51.762;8.564;2023-04-25T10:03:04;5.73;;;2.40;;
15230;SDS011;32569;51.762;8.564;2023-04-25T10:05:32;6.87;;;3.07;;
15230;SDS011;32569;51.762;8.564;2023-04-25T10:08:02;7.43;;;2.27;;
15230;SDS011;32569;51.762;8.564;2023-04-25T10:10:29;4.63;;;1.90;;
15230;SDS011;32569;51.762;8.564;2023-04-25T10:13:02;4.30;;;2.10;;
15230;SDS011;32569;51.762;8.564;2023-04-25T10:15:30;4.60;;;2.33;;
15230;SDS011;32569;51.762;8.564;2023-04-25T10:17:58;6.43;;;2.67;;
15230;SDS011;32569;51.762;8.564;2023-04-25T10:20:25;4.13;;;2.30;;
15230;SDS011;32569;51.762;8.564;2023-04-25T10:22:52;1.83;;;1.73;;
15230;SDS011;32569;51.762;8.564;2023-04-25T10:25:22;4.67;;;2.40;;
15230;SDS011;32569;51.762;8.564;2023-04-25T10:27:50;3.70;;;2.00;;
15230;SDS011;32569;51.762;8.564;2023-04-25T10:30:18;5.37;;;2.60;;
15230;SDS011;32569;51.762;8.564;2023-04-25T10:32:45;5.00;;;1.97;;
15230;SDS011;32569;51.762;8.564;2023-04-25T10:35:15;4.03;;;1.83;;
15230;SDS011;32569;51.762;8.564;2023-04-25T10:37:59;5.53;;;2.30;;
15230;SDS011;32569;51.762;8.564;2023-04-25T10:40:27;4.50;;;2.20;;
15230;SDS011;32569;51.762;8.564;2023-04-25T10:42:55;5.67;;;2.20;;
15230;SDS011;32569;51.762;8.564;2023-04-25T10:45:23;4.33;;;1.90;;
15230;SDS011;32569;51.762;8.564;2023-04-25T10:47:50;5.60;;;2.30;;
15230;SDS011;32569;51.762;8.564;2023-04-25T10:50:16;10.77;;;3.50;;
15230;SDS011;32569;51.762;8.564;2023-04-25T10:52:43;26.17;;;5.60;;
15230;SDS011;32569;51.762;8.564;2023-04-25T10:55:10;7.53;;;2.40;;
15230;SDS011;32569;51.762;8.564;2023-04-25T10:57:37;7.57;;;3.23;;
15230;SDS011;32569;51.762;8.564;2023-04-25T11:00:06;4.30;;;2.17;;
15230;SDS011;32569;51.762;8.564;2023-04-25T11:02:44;4.67;;;2.30;;
15230;SDS011;32569;51.762;8.564;2023-04-25T11:05:15;4.07;;;2.63;;
15230;SDS011;32569;51.762;8.564;2023-04-25T11:07:49;4.33;;;2.43;;
15230;SDS011;32569;51.762;8.564;2023-04-25T11:10:17;7.63;;;2.20;;
15230;SDS011;32569;51.762;8.564;2023-04-25T11:12:44;3.70;;;1.93;;
15230;SDS011;32569;51.762;8.564;2023-04-25T11:15:12;4.27;;;1.93;;
15230;SDS011;32569;51.762;8.564;2023-04-25T11:17:39;5.63;;;1.80;;
15230;SDS011;32569;51.762;8.564;2023-04-25T11:20:08;6.90;;;2.40;;
15230;SDS011;32569;51.762;8.564;2023-04-25T11:22:37;4.53;;;2.00;;
15230;SDS011;32569;51.762;8.564;2023-04-25T11:25:04;7.93;;;2.30;;
15230;SDS011;32569;51.762;8.564;2023-04-25T11:27:32;5.23;;;2.40;;
15230;SDS011;32569;51.762;8.564;2023-04-25T11:30:09;2.87;;;2.00;;
15230;SDS011;32569;51.762;8.564;2023-04-25T11:32:36;4.13;;;2.23;;
15230;SDS011;32569;51.762;8.564;2023-04-25T11:35:03;4.90;;;1.90;;
15230;SDS011;32569;51.762;8.564;2023-04-25T11:37:32;5.30;;;2.10;;
15230;SDS011;32569;51.762;8.564;2023-04-25T11:39:59;4.80;;;2.33;;
15230;SDS011;32569;51.762;8.564;2023-04-25T11:42:25;4.67;;;2.47;;
15230;SDS011;32569;51.762;8.564;2023-04-25T11:44:52;3.87;;;2.00;;
15230;SDS011;32569;51.762;8.564;2023-04-25T11:47:19;2.87;;;1.80;;
15230;SDS011;32569;51.762;8.564;2023-04-25T11:49:45;2.37;;;1.80;;
15230;SDS011;32569;51.762;8.564;2023-04-25T11:52:12;5.00;;;2.10;;
15230;SDS011;32569;51.762;8.564;2023-04-25T11:54:40;4.03;;;1.97;;
15230;SDS011;32569;51.762;8.564;2023-04-25T11:57:07;4.83;;;1.97;;
15230;SDS011;32569;51.762;8.564;2023-04-25T11:59:34;2.23;;;1.77;;
15230;SDS011;32569;51.762;8.564;2023-04-25T12:02:00;2.87;;;1.70;;
15230;SDS011;32569;51.762;8.564;2023-04-25T12:04:29;3.00;;;1.60;;
15230;SDS011;32569;51.762;8.564;2023-04-25T12:06:57;4.97;;;2.07;;
15230;SDS011;32569;51.762;8.564;2023-04-25T12:09:27;5.67;;;2.33;;
15230;SDS011;32569;51.762;8.564;2023-04-25T12:11:57;2.53;;;1.90;;
15230;SDS011;32569;51.762;8.564;2023-04-25T12:14:27;6.47;;;2.70;;
15230;SDS011;32569;51.762;8.564;2023-04-25T12:16:56;6.00;;;1.90;;
15230;SDS011;32569;51.762;8.564;2023-04-25T12:19:23;4.43;;;1.80;;
15230;SDS011;32569;51.762;8.564;2023-04-25T12:21:51;5.30;;;1.90;;
15230;SDS011;32569;51.762;8.564;2023-04-25T12:24:21;5.50;;;2.50;;
15230;SDS011;32569;51.762;8.564;2023-04-25T12:26:50;3.43;;;1.70;;
15230;SDS011;32569;51.762;8.564;2023-04-25T12:29:20;3.70;;;2.30;;
15230;SDS011;32569;51.762;8.564;2023-04-25T12:31:47;4.07;;;2.13;;
15230;SDS011;32569;51.762;8.564;2023-04-25T12:34:15;3.20;;;2.53;;
15230;SDS011;32569;51.762;8.564;2023-04-25T12:36:42;5.73;;;2.00;;
15230;SDS011;32569;51.762;8.564;2023-04-25T12:39:08;3.57;;;1.97;;
15230;SDS011;32569;51.762;8.564;2023-04-25T12:41:40;4.90;;;2.30;;
15230;SDS011;32569;51.762;8.564;2023-04-25T12:44:07;3.40;;;1.93;;
15230;SDS011;32569;51.762;8.564;2023-04-25T12:46:35;5.93;;;2.57;;
15230;SDS011;32569;51.762;8.564;2023-04-25T12:49:01;3.33;;;1.97;;
15230;SDS011;32569;51.762;8.564;2023-04-25T12:51:29;3.77;;;2.53;;
15230;SDS011;32569;51.762;8.564;2023-04-25T12:53:57;3.87;;;2.00;;
15230;SDS011;32569;51.762;8.564;2023-04-25T12:56:24;6.50;;;2.00;;
15230;SDS011;32569;51.762;8.564;2023-04-25T12:58:51;4.07;;;1.73;;
15230;SDS011;32569;51.762;8.564;2023-04-25T13:01:18;3.30;;;2.10;;
15230;SDS011;32569;51.762;8.564;2023-04-25T13:03:47;3.43;;;2.10;;
15230;SDS011;32569;51.762;8.564;2023-04-25T13:06:13;4.30;;;2.00;;
15230;SDS011;32569;51.762;8.564;2023-04-25T13:08:40;5.80;;;2.10;;
15230;SDS011;32569;51.762;8.564;2023-04-25T13:11:07;2.60;;;1.90;;
15230;SDS011;32569;51.762;8.564;2023-04-25T13:13:35;3.67;;;1.83;;
15230;SDS011;32569;51.762;8.564;2023-04-25T13:16:02;5.03;;;2.20;;
15230;SDS011;32569;51.762;8.564;2023-04-25T13:18:29;3.30;;;2.30;;
15230;SDS011;32569;51.762;8.564;2023-04-25T13:20:58;4.80;;;2.63;;
15230;SDS011;32569;51.762;8.564;2023-04-25T13:23:26;3.80;;;2.00;;
15230;SDS011;32569;51.762;8.564;2023-04-25T13:25:54;6.57;;;2.47;;
15230;SDS011;32569;51.762;8.564;2023-04-25T13:28:22;7.60;;;2.20;;
15230;SDS011;32569;51.762;8.564;2023-04-25T13:30:49;5.80;;;2.27;;
15230;SDS011;32569;51.762;8.564;2023-04-25T13:33:16;4.53;;;2.17;;
15230;SDS011;32569;51.762;8.564;2023-04-25T13:35:43;4.60;;;2.27;;
15230;SDS011;32569;51.762;8.564;2023-04-25T13:38:13;2.77;;;1.43;;
15230;SDS011;32569;51.762;8.564;2023-04-25T13:40:39;4.87;;;1.77;;
15230;SDS011;32569;51.762;8.564;2023-04-25T13:43:06;3.43;;;1.73;;
15230;SDS011;32569;51.762;8.564;2023-04-25T13:45:33;1.63;;;1.30;;
15230;SDS011;32569;51.762;8.564;2023-04-25T13:47:59;2.43;;;1.43;;
15230;SDS011;32569;51.762;8.564;2023-04-25T13:50:26;3.33;;;1.50;;
15230;SDS011;32569;51.762;8.564;2023-04-25T13:52:53;1.60;;;1.50;;
15230;SDS011;32569;51.762;8.564;2023-04-25T13:55:21;3.73;;;1.70;;
15230;SDS011;32569;51.762;8.564;2023-04-25T13:57:48;3.03;;;1.80;;
15230;SDS011;32569;51.762;8.564;2023-04-25T14:00:15;3.30;;;1.60;;
15230;SDS011;32569;51.762;8.564;2023-04-25T14:02:42;1.67;;;1.50;;
15230;SDS011;32569;51.762;8.564;2023-04-25T14:05:09;3.03;;;1.70;;
15230;SDS011;32569;51.762;8.564;2023-04-25T14:07:36;3.13;;;1.67;;
15230;SDS011;32569;51.762;8.564;2023-04-25T14:10:03;3.50;;;1.60;;
15230;SDS011;32569;51.762;8.564;2023-04-25T14:12:31;3.23;;;1.33;;
15230;SDS011;32569;51.762;8.564;2023-04-25T14:14:59;1.87;;;1.57;;
15230;SDS011;32569;51.762;8.564;2023-04-25T14:17:25;3.37;;;1.80;;
15230;SDS011;32569;51.762;8.564;2023-04-25T14:19:52;2.27;;;1.63;;
15230;SDS011;32569;51.762;8.564;2023-04-25T14:22:19;4.30;;;1.83;;
15230;SDS011;32569;51.762;8.564;2023-04-25T14:24:46;3.00;;;1.90;;
15230;SDS011;32569;51.762;8.564;2023-04-25T14:27:13;3.63;;;2.13;;
15230;SDS011;32569;51.762;8.564;2023-04-25T14:29:41;4.03;;;1.90;;
15230;SDS011;32569;51.762;8.564;2023-04-25T14:32:07;4.80;;;1.87;;
15230;SDS011;32569;51.762;8.564;2023-04-25T14:34:35;2.00;;;1.70;;
15230;SDS011;32569;51.762;8.564;2023-04-25T14:37:01;2.30;;;1.70;;
15230;SDS011;32569;51.762;8.564;2023-04-25T14:39:31;4.33;;;1.90;;